VHJLE YPJT-YPJT
Flight info
| Callsign | VHJLE |
|---|---|
| Flight time | 0h 36m |
| Altitude | 3000 |
| Route | OLMAM DCT YBUN DCT YMUL |
| Aircraft | C172/L-SFG/C |
Departure
| Time | 2026-04-30 13:14 |
|---|---|
| Airport | Perth Jandakot Airport (YPJT) |
Arrival
| Time | 2026-04-30 13:50 |
|---|---|
| Airport | Perth Jandakot Airport (YPJT) |
| Time | Latitude | Longitude | Altitude | Speed | Heading |
|---|---|---|---|---|---|
| 2026-04-30 13:06 | -32.09140 | 115.88429 | 96 ft | 0 kts | 43° |
| 2026-04-30 13:10 | -32.09136 | 115.88439 | 96 ft | 4 kts | 89° |
| 2026-04-30 13:10 | -32.09150 | 115.88455 | 96 ft | 1 kts | 157° |
| 2026-04-30 13:10 | -32.09155 | 115.88457 | 96 ft | 3 kts | 160° |
| 2026-04-30 13:10 | -32.09177 | 115.88457 | 96 ft | 4 kts | 193° |
| 2026-04-30 13:11 | -32.09204 | 115.88471 | 96 ft | 5 kts | 131° |
| 2026-04-30 13:11 | -32.09231 | 115.88506 | 96 ft | 5 kts | 139° |
| 2026-04-30 13:11 | -32.09250 | 115.88497 | 96 ft | 4 kts | 235° |
| 2026-04-30 13:11 | -32.09269 | 115.88465 | 96 ft | 6 kts | 233° |
| 2026-04-30 13:12 | -32.09300 | 115.88414 | 96 ft | 8 kts | 234° |
| 2026-04-30 13:12 | -32.09327 | 115.88373 | 95 ft | 5 kts | 222° |
| 2026-04-30 13:12 | -32.09352 | 115.88376 | 95 ft | 4 kts | 145° |
| 2026-04-30 13:13 | -32.09420 | 115.88410 | 92 ft | 8 kts | 225° |
| 2026-04-30 13:13 | -32.09458 | 115.88353 | 94 ft | 22 kts | 232° |
| 2026-04-30 13:13 | -32.09964 | 115.87549 | 251 ft | 81 kts | 226° |
| 2026-04-30 13:14 | -32.10304 | 115.87031 | 512 ft | 81 kts | 227° |
| 2026-04-30 13:14 | -32.10678 | 115.86539 | 702 ft | 79 kts | 223° |
| 2026-04-30 13:14 | -32.11150 | 115.85391 | 1072 ft | 99 kts | 287° |
| 2026-04-30 13:15 | -32.10704 | 115.84727 | 1208 ft | 105 kts | 304° |
| 2026-04-30 13:15 | -32.09769 | 115.83467 | 1500 ft | 102 kts | 297° |
| 2026-04-30 13:15 | -32.09356 | 115.82767 | 1560 ft | 106 kts | 293° |
| 2026-04-30 13:16 | -32.08970 | 115.82024 | 1599 ft | 106 kts | 291° |
| 2026-04-30 13:16 | -32.08592 | 115.81291 | 1609 ft | 104 kts | 291° |
| 2026-04-30 13:16 | -32.08201 | 115.80574 | 1593 ft | 104 kts | 292° |
| 2026-04-30 13:17 | -32.07583 | 115.79341 | 1510 ft | 105 kts | 285° |
| 2026-04-30 13:17 | -32.07044 | 115.78361 | 1469 ft | 107 kts | 293° |
| 2026-04-30 13:17 | -32.06333 | 115.77197 | 1511 ft | 103 kts | 294° |
| 2026-04-30 13:18 | -32.05619 | 115.76438 | 1548 ft | 117 kts | 343° |
| 2026-04-30 13:18 | -32.04255 | 115.76273 | 1560 ft | 118 kts | 351° |
| 2026-04-30 13:18 | -32.03436 | 115.76172 | 1556 ft | 119 kts | 349° |
| 2026-04-30 13:19 | -32.02680 | 115.75905 | 1517 ft | 108 kts | 301° |
| 2026-04-30 13:19 | -32.02731 | 115.75275 | 1499 ft | 79 kts | 206° |
| 2026-04-30 13:19 | -32.03205 | 115.75009 | 1497 ft | 80 kts | 234° |
| 2026-04-30 13:19 | -32.03383 | 115.74380 | 1526 ft | 80 kts | 237° |
| 2026-04-30 13:20 | -32.03807 | 115.74123 | 1501 ft | 85 kts | 160° |
| 2026-04-30 13:20 | -32.03960 | 115.74847 | 1554 ft | 115 kts | 68° |
| 2026-04-30 13:20 | -32.03204 | 115.75282 | 1561 ft | 127 kts | 11° |
| 2026-04-30 13:20 | -32.02339 | 115.75483 | 1584 ft | 131 kts | 11° |
| 2026-04-30 13:21 | -32.01459 | 115.75640 | 1683 ft | 126 kts | 6° |
| 2026-04-30 13:21 | -32.00570 | 115.75767 | 1642 ft | 135 kts | 4° |
| 2026-04-30 13:21 | -31.99615 | 115.75766 | 1677 ft | 136 kts | 2° |
| 2026-04-30 13:22 | -31.98414 | 115.77020 | 1865 ft | 120 kts | 68° |
| 2026-04-30 13:22 | -31.98015 | 115.77878 | 1917 ft | 117 kts | 83° |
| 2026-04-30 13:22 | -31.97583 | 115.79714 | 1982 ft | 118 kts | 88° |
| 2026-04-30 13:23 | -31.97379 | 115.80694 | 1933 ft | 124 kts | 84° |
| 2026-04-30 13:23 | -31.96833 | 115.82629 | 1875 ft | 125 kts | 79° |
| 2026-04-30 13:24 | -31.96293 | 115.84537 | 1797 ft | 124 kts | 82° |
| 2026-04-30 13:24 | -31.95650 | 115.86320 | 1765 ft | 130 kts | 22° |
| 2026-04-30 13:25 | -31.94820 | 115.85129 | 1722 ft | 101 kts | 263° |
| 2026-04-30 13:25 | -31.95614 | 115.84477 | 1618 ft | 106 kts | 135° |
| 2026-04-30 13:26 | -31.96299 | 115.87024 | 1527 ft | 112 kts | 111° |
| 2026-04-30 13:26 | -31.95984 | 115.88636 | 1389 ft | 122 kts | 11° |
| 2026-04-30 13:27 | -31.95029 | 115.87573 | 1297 ft | 93 kts | 239° |
| 2026-04-30 13:28 | -31.96425 | 115.88065 | 1238 ft | 102 kts | 93° |
| 2026-04-30 13:28 | -31.95226 | 115.89174 | 1288 ft | 117 kts | 28° |
| 2026-04-30 13:28 | -31.94595 | 115.89013 | 1246 ft | 98 kts | 275° |
| 2026-04-30 13:29 | -31.95447 | 115.88992 | 1224 ft | 99 kts | 89° |
| 2026-04-30 13:29 | -31.94094 | 115.89246 | 1450 ft | 113 kts | 350° |
| 2026-04-30 13:30 | -31.92210 | 115.87949 | 1652 ft | 106 kts | 268° |
| 2026-04-30 13:31 | -31.91968 | 115.86220 | 1775 ft | 107 kts | 268° |
| 2026-04-30 13:31 | -31.90932 | 115.83980 | 1911 ft | 106 kts | 262° |
| 2026-04-30 13:32 | -31.91316 | 115.82567 | 1954 ft | 115 kts | 297° |
| 2026-04-30 13:32 | -31.89717 | 115.82016 | 1950 ft | 127 kts | 349° |
| 2026-04-30 13:33 | -31.88124 | 115.82557 | 1920 ft | 120 kts | 82° |
| 2026-04-30 13:33 | -31.88900 | 115.83099 | 1985 ft | 87 kts | 224° |
| 2026-04-30 13:34 | -31.89302 | 115.82541 | 1972 ft | 91 kts | 225° |
| 2026-04-30 13:34 | -31.90167 | 115.80683 | 2045 ft | 99 kts | 270° |
| 2026-04-30 13:35 | -31.90055 | 115.79920 | 2033 ft | 92 kts | 260° |
| 2026-04-30 13:35 | -31.90828 | 115.78920 | 1912 ft | 85 kts | 204° |
| 2026-04-30 13:36 | -31.91889 | 115.78360 | 1843 ft | 83 kts | 202° |
| 2026-04-30 13:36 | -31.92312 | 115.77893 | 1786 ft | 90 kts | 238° |
| 2026-04-30 13:36 | -31.92882 | 115.76587 | 1780 ft | 87 kts | 233° |
| 2026-04-30 13:37 | -31.93222 | 115.76018 | 1719 ft | 84 kts | 215° |
| 2026-04-30 13:37 | -31.94299 | 115.75599 | 1575 ft | 80 kts | 191° |
| 2026-04-30 13:38 | -31.95430 | 115.75584 | 1474 ft | 86 kts | 182° |
| 2026-04-30 13:38 | -31.95986 | 115.75419 | 1430 ft | 86 kts | 207° |
| 2026-04-30 13:38 | -31.97057 | 115.75028 | 1350 ft | 82 kts | 187° |
| 2026-04-30 13:39 | -31.98223 | 115.74947 | 1284 ft | 87 kts | 182° |
| 2026-04-30 13:39 | -31.99000 | 115.74929 | 1281 ft | 85 kts | 184° |
| 2026-04-30 13:40 | -31.99581 | 115.74946 | 1211 ft | 88 kts | 179° |
| 2026-04-30 13:40 | -32.00173 | 115.75041 | 1231 ft | 83 kts | 174° |
| 2026-04-30 13:40 | -32.00763 | 115.75004 | 1305 ft | 90 kts | 186° |
| 2026-04-30 13:40 | -32.01388 | 115.74938 | 1364 ft | 94 kts | 185° |
| 2026-04-30 13:41 | -32.02013 | 115.74905 | 1339 ft | 88 kts | 185° |
| 2026-04-30 13:41 | -32.02624 | 115.74910 | 1299 ft | 89 kts | 180° |
| 2026-04-30 13:41 | -32.03214 | 115.74836 | 1284 ft | 86 kts | 209° |
| 2026-04-30 13:41 | -32.03666 | 115.74378 | 1233 ft | 84 kts | 215° |
| 2026-04-30 13:42 | -32.04187 | 115.74126 | 1236 ft | 87 kts | 189° |
| 2026-04-30 13:42 | -32.04834 | 115.74121 | 1296 ft | 97 kts | 178° |
| 2026-04-30 13:42 | -32.05852 | 115.74297 | 1496 ft | 96 kts | 175° |
| 2026-04-30 13:43 | -32.05969 | 115.74325 | 1509 ft | 97 kts | 175° |
| 2026-04-30 13:43 | -32.06622 | 115.74507 | 1546 ft | 95 kts | 173° |
| 2026-04-30 13:43 | -32.07265 | 115.74680 | 1572 ft | 96 kts | 173° |
| 2026-04-30 13:43 | -32.07924 | 115.74857 | 1545 ft | 99 kts | 172° |
| 2026-04-30 13:44 | -32.08596 | 115.75074 | 1514 ft | 100 kts | 170° |
| 2026-04-30 13:44 | -32.09154 | 115.75545 | 1515 ft | 109 kts | 127° |
| 2026-04-30 13:44 | -32.09185 | 115.76485 | 1488 ft | 116 kts | 94° |
| 2026-04-30 13:44 | -32.09125 | 115.77414 | 1447 ft | 112 kts | 99° |
| 2026-04-30 13:45 | -32.09166 | 115.79213 | 1476 ft | 109 kts | 105° |
| 2026-04-30 13:45 | -32.09210 | 115.80123 | 1487 ft | 114 kts | 102° |
| 2026-04-30 13:45 | -32.09268 | 115.81074 | 1492 ft | 116 kts | 105° |
| 2026-04-30 13:46 | -32.09356 | 115.82006 | 1497 ft | 114 kts | 106° |
| 2026-04-30 13:46 | -32.09415 | 115.82951 | 1440 ft | 116 kts | 105° |
| 2026-04-30 13:46 | -32.09459 | 115.83893 | 1424 ft | 116 kts | 104° |
| 2026-04-30 13:46 | -32.09435 | 115.84840 | 1453 ft | 121 kts | 80° |
| 2026-04-30 13:47 | -32.08946 | 115.85679 | 1485 ft | 126 kts | 57° |
| 2026-04-30 13:47 | -32.08405 | 115.86470 | 1409 ft | 125 kts | 58° |
| 2026-04-30 13:47 | -32.07856 | 115.87250 | 1325 ft | 122 kts | 57° |
| 2026-04-30 13:47 | -32.07305 | 115.88009 | 1161 ft | 122 kts | 55° |
| 2026-04-30 13:48 | -32.06791 | 115.88740 | 998 ft | 109 kts | 58° |
| 2026-04-30 13:48 | -32.06656 | 115.89390 | 923 ft | 71 kts | 137° |
| 2026-04-30 13:48 | -32.06981 | 115.89898 | 807 ft | 83 kts | 139° |
| 2026-04-30 13:48 | -32.07342 | 115.90438 | 807 ft | 82 kts | 139° |
| 2026-04-30 13:49 | -32.07771 | 115.90638 | 810 ft | 70 kts | 197° |
| 2026-04-30 13:49 | -32.08216 | 115.90314 | 739 ft | 80 kts | 219° |
| 2026-04-30 13:49 | -32.08565 | 115.89782 | 595 ft | 85 kts | 229° |
| 2026-04-30 13:49 | -32.08895 | 115.89255 | 455 ft | 76 kts | 227° |
| 2026-04-30 13:50 | -32.09217 | 115.88746 | 210 ft | 79 kts | 230° |
| 2026-04-30 13:50 | -32.09689 | 115.87976 | 96 ft | 30 kts | 233° |
| 2026-04-30 13:50 | -32.09786 | 115.87816 | 96 ft | 18 kts | 236° |
| 2026-04-30 13:51 | -32.09830 | 115.87734 | 96 ft | 7 kts | 259° |
| 2026-04-30 13:51 | -32.09806 | 115.87695 | 96 ft | 6 kts | 324° |
| 2026-04-30 13:51 | -32.09771 | 115.87667 | 96 ft | 6 kts | 339° |
| 2026-04-30 13:51 | -32.09742 | 115.87689 | 96 ft | 5 kts | 55° |
| 2026-04-30 13:52 | -32.09717 | 115.87730 | 96 ft | 7 kts | 54° |
| 2026-04-30 13:52 | -32.09688 | 115.87777 | 96 ft | 7 kts | 54° |
| 2026-04-30 13:52 | -32.09660 | 115.87823 | 96 ft | 9 kts | 53° |
| 2026-04-30 13:52 | -32.09616 | 115.87896 | 96 ft | 12 kts | 56° |
| 2026-04-30 13:53 | -32.09568 | 115.87969 | 96 ft | 11 kts | 51° |
| 2026-04-30 13:53 | -32.09530 | 115.88036 | 96 ft | 9 kts | 54° |
| 2026-04-30 13:53 | -32.09496 | 115.88093 | 96 ft | 8 kts | 54° |
| 2026-04-30 13:53 | -32.09466 | 115.88143 | 96 ft | 7 kts | 53° |
| 2026-04-30 13:54 | -32.09433 | 115.88196 | 96 ft | 8 kts | 54° |
| 2026-04-30 13:54 | -32.09402 | 115.88245 | 96 ft | 7 kts | 53° |
| 2026-04-30 13:54 | -32.09376 | 115.88290 | 96 ft | 6 kts | 54° |
| 2026-04-30 13:54 | -32.09351 | 115.88332 | 95 ft | 7 kts | 55° |
| 2026-04-30 13:55 | -32.09318 | 115.88386 | 95 ft | 11 kts | 54° |
| 2026-04-30 13:55 | -32.09315 | 115.88391 | 96 ft | 12 kts | 54° |
| 2026-04-30 13:55 | -32.09266 | 115.88471 | 96 ft | 11 kts | 53° |
| 2026-04-30 13:55 | -32.09233 | 115.88511 | 96 ft | 4 kts | 339° |
| 2026-04-30 13:56 | -32.09207 | 115.88477 | 96 ft | 6 kts | 314° |
| 2026-04-30 13:56 | -32.09179 | 115.88442 | 96 ft | 5 kts | 312° |
| 2026-04-30 13:56 | -32.09158 | 115.88417 | 96 ft | 3 kts | 325° |
| 2026-04-30 13:56 | -32.09143 | 115.88423 | 96 ft | 3 kts | 59° |
| 2026-04-30 13:57 | -32.09138 | 115.88430 | 96 ft | 0 kts | 56° |